createdAt,value
2023-05-04T00:02:07.684Z,2.88
2023-05-04T00:04:34.375Z,2.17
2023-05-04T00:07:01.044Z,2.42
2023-05-04T00:09:27.773Z,2.33
2023-05-04T00:11:54.534Z,2.20
2023-05-04T00:14:21.206Z,2.20
2023-05-04T00:16:47.843Z,2.88
2023-05-04T00:19:15.317Z,2.45
2023-05-04T00:21:41.967Z,2.97
2023-05-04T00:24:08.852Z,2.45
2023-05-04T00:26:35.536Z,2.47
2023-05-04T00:29:02.174Z,2.80
2023-05-04T00:31:28.961Z,2.80
2023-05-04T00:33:55.822Z,2.80
2023-05-04T00:36:22.461Z,2.60
2023-05-04T00:38:51.146Z,3.08
2023-05-04T00:41:18.599Z,2.65
2023-05-04T00:43:45.713Z,2.10
2023-05-04T00:46:12.757Z,2.78
2023-05-04T00:48:45.985Z,2.60
2023-05-04T00:51:15.028Z,2.60
2023-05-04T00:53:41.887Z,2.40
2023-05-04T00:56:08.968Z,2.67
2023-05-04T00:58:35.865Z,2.33
2023-05-04T01:01:03.922Z,2.15
2023-05-04T01:03:32.338Z,2.72
2023-05-04T01:06:30.352Z,2.58
2023-05-04T01:11:51.692Z,2.45
2023-05-04T01:14:20.613Z,2.25
2023-05-04T01:16:47.625Z,2.45
2023-05-04T01:19:14.331Z,2.55
2023-05-04T01:21:41.049Z,2.40
2023-05-04T01:24:07.926Z,2.40
2023-05-04T01:26:41.765Z,2.58
2023-05-04T01:29:21.778Z,2.58
2023-05-04T01:31:49.851Z,2.45
2023-05-04T01:34:17.091Z,2.63
2023-05-04T01:36:44.844Z,2.45
2023-05-04T01:39:11.452Z,2.97
2023-05-04T01:41:38.147Z,2.80
2023-05-04T01:44:05.460Z,2.30
2023-05-04T01:46:32.409Z,3.00
2023-05-04T01:48:59.314Z,2.83
2023-05-04T01:51:26.035Z,2.40
2023-05-04T01:53:52.740Z,3.10
2023-05-04T01:56:19.530Z,2.55
2023-05-04T01:58:46.238Z,2.55
2023-05-04T02:01:13.051Z,2.75
2023-05-04T02:03:40.926Z,2.22
2023-05-04T02:06:08.391Z,3.08
2023-05-04T02:08:35.097Z,2.95
2023-05-04T02:11:01.867Z,2.75
2023-05-04T02:13:28.477Z,3.28
2023-05-04T02:15:55.215Z,2.60
2023-05-04T02:18:21.993Z,2.80
2023-05-04T02:20:48.697Z,2.53
2023-05-04T02:23:15.530Z,2.90
2023-05-04T02:25:42.245Z,2.88
2023-05-04T02:28:09.007Z,2.70
2023-05-04T02:30:35.778Z,2.58
2023-05-04T02:33:02.601Z,2.67
2023-05-04T02:35:29.614Z,2.80
2023-05-04T02:37:56.211Z,3.22
2023-05-04T02:40:22.923Z,3.22
2023-05-04T02:42:49.587Z,2.30
2023-05-04T02:45:16.355Z,3.90
2023-05-04T02:47:43.079Z,2.67
2023-05-04T02:50:10.107Z,2.63
2023-05-04T02:52:36.808Z,3.25
2023-05-04T02:55:04.182Z,3.42
2023-05-04T02:57:31.013Z,2.97
2023-05-04T02:59:57.738Z,3.22
2023-05-04T03:02:24.433Z,2.85
2023-05-04T03:04:51.083Z,2.90
2023-05-04T03:07:17.795Z,2.67
2023-05-04T03:09:47.416Z,3.80
2023-05-04T03:12:14.450Z,2.88
2023-05-04T03:14:41.168Z,3.10
2023-05-04T03:17:07.987Z,2.78
2023-05-04T03:19:34.737Z,2.83
2023-05-04T03:22:01.482Z,2.88
2023-05-04T03:24:28.140Z,3.00
2023-05-04T03:26:54.864Z,2.53
2023-05-04T03:29:21.706Z,3.10
2023-05-04T03:31:48.391Z,3.95
2023-05-04T03:34:15.210Z,3.60
2023-05-04T03:36:42.617Z,3.05
2023-05-04T03:39:09.364Z,3.50
2023-05-04T03:41:36.118Z,3.58
2023-05-04T03:44:02.733Z,3.15
2023-05-04T03:46:29.482Z,2.65
2023-05-04T03:48:57.281Z,3.65
2023-05-04T03:51:24.003Z,3.50
2023-05-04T03:53:50.708Z,3.03
2023-05-04T03:56:17.388Z,3.63
2023-05-04T03:58:44.121Z,4.18
2023-05-04T04:01:10.831Z,3.42
2023-05-04T04:03:38.861Z,3.38
2023-05-04T04:06:08.509Z,4.28
2023-05-04T04:08:35.397Z,3.40
2023-05-04T04:11:02.323Z,3.70
2023-05-04T04:13:28.997Z,3.88
2023-05-04T04:15:55.744Z,3.50
2023-05-04T04:18:23.599Z,4.18
2023-05-04T04:20:51.108Z,3.17
2023-05-04T04:23:21.641Z,3.90
2023-05-04T04:25:48.332Z,3.53
2023-05-04T04:28:15.118Z,3.78
2023-05-04T04:30:42.104Z,3.80
2023-05-04T04:33:09.344Z,3.22
2023-05-04T04:35:37.020Z,3.60
2023-05-04T04:38:04.138Z,4.15
2023-05-04T04:40:31.122Z,3.45
2023-05-04T04:42:57.867Z,4.40
2023-05-04T04:45:24.850Z,3.83
2023-05-04T04:47:51.613Z,4.50
2023-05-04T04:50:19.521Z,4.90
2023-05-04T04:52:46.608Z,4.63
2023-05-04T04:55:15.701Z,4.47
2023-05-04T04:57:42.436Z,5.80
2023-05-04T05:00:10.097Z,4.85
2023-05-04T05:02:37.039Z,4.43
2023-05-04T05:05:04.415Z,5.32
2023-05-04T05:07:32.269Z,5.07
2023-05-04T05:09:59.049Z,6.18
2023-05-04T05:12:25.853Z,6.90
2023-05-04T05:14:52.775Z,5.88
2023-05-04T05:17:20.163Z,4.60
2023-05-04T05:19:46.903Z,4.95
2023-05-04T05:22:14.133Z,5.13
2023-05-04T05:24:41.099Z,4.20
2023-05-04T05:27:07.805Z,4.13
2023-05-04T05:29:35.357Z,4.38
2023-05-04T05:32:01.991Z,4.35
2023-05-04T05:34:28.692Z,4.38
2023-05-04T05:36:55.411Z,4.15
2023-05-04T05:39:22.136Z,4.65
2023-05-04T05:41:48.745Z,5.05
2023-05-04T05:44:15.376Z,4.22
2023-05-04T05:46:42.116Z,4.25
2023-05-04T05:49:08.816Z,3.33
2023-05-04T05:51:35.445Z,4.25
2023-05-04T05:54:02.152Z,3.80
2023-05-04T05:56:28.838Z,4.32
2023-05-04T05:58:55.773Z,4.57
2023-05-04T06:01:22.649Z,5.03
2023-05-04T06:03:49.636Z,3.70
2023-05-04T06:06:17.259Z,4.15
2023-05-04T06:08:43.887Z,4.45
2023-05-04T06:11:11.724Z,3.78
2023-05-04T06:13:38.632Z,4.20
2023-05-04T06:16:05.451Z,4.40
2023-05-04T06:18:32.295Z,4.60
2023-05-04T06:21:00.111Z,4.38
2023-05-04T06:23:31.672Z,4.55
2023-05-04T06:25:58.599Z,4.68
2023-05-04T06:28:25.365Z,4.85
2023-05-04T06:30:52.037Z,4.40
2023-05-04T06:33:18.769Z,4.20
2023-05-04T06:35:45.561Z,4.20
2023-05-04T06:38:12.393Z,4.28
2023-05-04T06:40:39.178Z,4.45
2023-05-04T06:43:06.689Z,4.53
2023-05-04T06:45:37.000Z,4.10
2023-05-04T06:48:04.528Z,3.92
2023-05-04T06:50:33.443Z,4.72
2023-05-04T06:53:11.685Z,4.28
2023-05-04T06:55:38.553Z,4.53
2023-05-04T06:58:05.492Z,4.22
2023-05-04T07:00:32.452Z,4.90
2023-05-04T07:02:59.184Z,4.03
2023-05-04T07:05:26.138Z,3.92
2023-05-04T07:07:53.344Z,6.25
2023-05-04T07:10:20.066Z,5.05
2023-05-04T07:12:47.201Z,4.38
2023-05-04T07:15:14.125Z,4.07
2023-05-04T07:17:41.009Z,3.90
2023-05-04T07:20:08.384Z,3.75
2023-05-04T07:22:35.261Z,4.20
2023-05-04T07:25:02.108Z,3.67
2023-05-04T07:27:29.020Z,4.32
2023-05-04T07:29:56.155Z,3.70
2023-05-04T07:32:23.574Z,3.60
2023-05-04T07:34:50.419Z,3.53
2023-05-04T07:37:17.236Z,3.92
2023-05-04T07:39:44.015Z,3.80
2023-05-04T07:42:13.862Z,3.47
2023-05-04T07:44:41.436Z,3.40
2023-05-04T07:47:08.480Z,3.20
2023-05-04T07:49:35.202Z,3.05
2023-05-04T07:52:01.942Z,2.97
2023-05-04T07:54:28.682Z,2.58
2023-05-04T07:56:55.723Z,3.53
2023-05-04T07:59:22.719Z,3.42
2023-05-04T08:01:49.512Z,3.45
2023-05-04T08:04:16.297Z,3.50
2023-05-04T08:06:42.986Z,3.53
2023-05-04T08:09:09.756Z,3.58
2023-05-04T08:11:37.752Z,3.70
2023-05-04T08:14:04.673Z,3.63
2023-05-04T08:16:32.587Z,3.72
2023-05-04T08:19:01.108Z,3.30
2023-05-04T08:21:27.979Z,3.15
2023-05-04T08:23:54.734Z,3.50
2023-05-04T08:26:21.435Z,3.00
2023-05-04T08:28:48.905Z,3.50
2023-05-04T08:31:18.391Z,3.13
2023-05-04T08:33:48.404Z,3.38
2023-05-04T08:36:15.425Z,3.80
2023-05-04T08:38:42.185Z,3.13
2023-05-04T08:41:10.979Z,3.30
2023-05-04T08:43:38.244Z,3.42
2023-05-04T08:46:06.698Z,3.38
2023-05-04T08:48:34.676Z,3.30
2023-05-04T08:51:02.484Z,2.90
2023-05-04T08:53:30.590Z,2.90
2023-05-04T08:55:59.124Z,3.58
2023-05-04T08:58:27.004Z,2.78
2023-05-04T09:00:54.612Z,3.95
2023-05-04T09:03:21.704Z,3.40
2023-05-04T09:05:50.922Z,3.20
2023-05-04T09:08:20.487Z,4.03
2023-05-04T09:10:47.302Z,3.65
2023-05-04T09:13:14.666Z,2.75
2023-05-04T09:15:42.374Z,3.38
2023-05-04T09:18:09.909Z,2.78
2023-05-04T09:20:45.235Z,3.15
2023-05-04T09:23:13.137Z,3.25
2023-05-04T09:25:52.699Z,3.22
2023-05-04T09:28:21.927Z,3.60
2023-05-04T09:30:51.699Z,3.10
2023-05-04T09:33:27.259Z,3.22
2023-05-04T09:35:54.054Z,2.80
2023-05-04T09:38:28.013Z,3.30
2023-05-04T09:40:54.930Z,3.13
2023-05-04T09:43:22.230Z,3.20
2023-05-04T09:45:49.275Z,2.83
2023-05-04T09:48:20.014Z,3.00
2023-05-04T09:50:56.629Z,3.28
2023-05-04T09:53:27.982Z,3.67
2023-05-04T09:56:16.238Z,3.33
2023-05-04T09:58:45.583Z,3.17
2023-05-04T10:01:12.683Z,3.20
2023-05-04T10:03:40.267Z,3.13
2023-05-04T10:06:09.004Z,3.08
2023-05-04T10:08:37.049Z,3.20
2023-05-04T10:11:03.932Z,3.13
2023-05-04T10:13:41.982Z,3.17
2023-05-04T10:16:39.531Z,2.95
2023-05-04T10:19:28.103Z,2.90
2023-05-04T10:22:28.069Z,2.72
2023-05-04T10:25:28.025Z,3.40
2023-05-04T10:27:54.649Z,2.45
2023-05-04T10:30:21.868Z,2.67
2023-05-04T10:32:55.764Z,2.78
2023-05-04T10:35:22.793Z,2.83
2023-05-04T10:37:56.844Z,2.80
2023-05-04T10:40:39.830Z,3.00
2023-05-04T10:43:08.466Z,2.72
2023-05-04T10:45:42.170Z,3.33
2023-05-04T10:48:09.603Z,3.08
2023-05-04T10:50:46.700Z,2.58
2023-05-04T10:53:15.492Z,2.47
2023-05-04T10:55:47.153Z,2.70
2023-05-04T10:58:16.822Z,2.50
2023-05-04T11:00:46.855Z,3.25
2023-05-04T11:03:14.514Z,2.45
2023-05-04T11:05:47.176Z,2.30
2023-05-04T11:08:17.636Z,2.90
2023-05-04T11:10:44.788Z,2.60
2023-05-04T11:13:12.381Z,2.83
2023-05-04T11:15:49.583Z,3.13
2023-05-04T11:18:29.210Z,2.90
2023-05-04T11:20:56.304Z,2.67
2023-05-04T11:23:23.534Z,2.15
2023-05-04T11:25:50.909Z,2.50
2023-05-04T11:28:18.134Z,2.75
2023-05-04T11:30:47.573Z,2.13
2023-05-04T11:33:19.316Z,2.50
2023-05-04T11:35:46.399Z,2.47
2023-05-04T11:38:20.127Z,2.53
2023-05-04T11:40:49.842Z,2.50
2023-05-04T11:43:17.457Z,2.60
2023-05-04T11:45:49.287Z,2.38
2023-05-04T11:48:18.514Z,2.55
2023-05-04T11:50:49.194Z,2.25
2023-05-04T11:53:21.483Z,2.60
2023-05-04T11:55:48.623Z,2.40
2023-05-04T11:58:15.453Z,2.20
2023-05-04T12:00:47.234Z,2.22
2023-05-04T12:03:16.074Z,2.83
2023-05-04T12:05:51.351Z,2.53
2023-05-04T12:08:31.656Z,2.40
2023-05-04T12:11:19.641Z,2.78
2023-05-04T12:13:48.815Z,2.30
2023-05-04T12:16:20.254Z,2.28
2023-05-04T12:18:48.423Z,2.67
2023-05-04T12:21:20.238Z,2.03
2023-05-04T12:23:47.418Z,2.33
2023-05-04T12:26:16.301Z,2.15
2023-05-04T12:28:45.301Z,2.42
2023-05-04T12:31:12.026Z,2.42
2023-05-04T12:33:38.842Z,2.50
2023-05-04T12:36:06.252Z,4.07
2023-05-04T12:38:33.824Z,6.88
2023-05-04T12:41:04.348Z,15.07
2023-05-04T12:43:34.212Z,2.60
2023-05-04T12:46:03.346Z,3.80
2023-05-04T12:48:32.660Z,3.28
2023-05-04T12:51:00.719Z,2.40
2023-05-04T12:53:29.962Z,2.70
2023-05-04T12:55:57.504Z,2.92
2023-05-04T12:58:24.246Z,2.70
2023-05-04T13:00:51.331Z,2.40
2023-05-04T13:03:18.665Z,2.30
2023-05-04T13:05:47.435Z,2.40
2023-05-04T13:08:14.121Z,2.50
2023-05-04T13:10:40.926Z,2.65
2023-05-04T13:13:07.712Z,2.30
2023-05-04T13:15:35.477Z,1.90
2023-05-04T13:18:02.924Z,2.22
2023-05-04T13:20:30.159Z,2.17
2023-05-04T13:22:58.408Z,2.10
2023-05-04T13:25:25.913Z,2.25
2023-05-04T13:27:53.096Z,2.25
2023-05-04T13:30:21.731Z,2.30
2023-05-04T13:32:51.209Z,2.60
2023-05-04T13:35:18.305Z,2.22
2023-05-04T13:37:47.687Z,2.20
2023-05-04T13:40:14.680Z,2.67
2023-05-04T13:42:41.390Z,2.20
2023-05-04T13:45:08.916Z,2.53
2023-05-04T13:47:40.042Z,2.28
2023-05-04T13:50:08.087Z,2.03
2023-05-04T13:52:35.906Z,2.35
2023-05-04T13:55:02.689Z,2.03
2023-05-04T13:57:29.686Z,2.30
2023-05-04T14:00:05.813Z,2.33
2023-05-04T14:02:33.915Z,2.10
2023-05-04T14:05:01.432Z,2.03
2023-05-04T14:07:28.270Z,2.42
2023-05-04T14:09:55.978Z,2.15
2023-05-04T14:12:22.764Z,1.90
2023-05-04T14:14:50.670Z,1.88
2023-05-04T14:17:17.723Z,2.58
2023-05-04T14:19:45.231Z,2.20
2023-05-04T14:22:12.006Z,2.03
2023-05-04T14:24:38.755Z,2.05
2023-05-04T14:27:05.422Z,2.28
2023-05-04T14:29:33.561Z,2.22
2023-05-04T14:32:00.983Z,2.00
2023-05-04T14:34:30.496Z,2.60
2023-05-04T14:36:57.630Z,2.33
2023-05-04T14:39:24.747Z,2.70
2023-05-04T14:41:52.723Z,2.42
2023-05-04T14:44:20.410Z,2.25
2023-05-04T14:46:47.255Z,1.85
2023-05-04T14:49:18.765Z,2.15
2023-05-04T14:51:51.538Z,2.55
2023-05-04T14:54:20.390Z,2.50
2023-05-04T14:56:47.500Z,2.35
2023-05-04T14:59:14.355Z,2.53
2023-05-04T15:01:41.052Z,2.35
2023-05-04T15:04:07.683Z,2.40
2023-05-04T15:06:37.510Z,2.45
2023-05-04T15:09:04.336Z,3.17
2023-05-04T15:11:30.981Z,2.33
2023-05-04T15:13:59.044Z,2.45
2023-05-04T15:16:32.065Z,2.00
2023-05-04T15:18:59.637Z,2.53
2023-05-04T15:21:27.820Z,1.88
2023-05-04T15:23:54.845Z,2.25
2023-05-04T15:26:22.139Z,3.00
2023-05-04T15:28:49.065Z,2.30
2023-05-04T15:31:17.748Z,2.33
2023-05-04T15:33:45.135Z,2.28
2023-05-04T15:36:13.487Z,2.22
2023-05-04T15:38:40.363Z,2.20
2023-05-04T15:41:07.052Z,2.10
2023-05-04T15:43:34.430Z,2.42
2023-05-04T15:46:01.608Z,2.40
2023-05-04T15:48:28.270Z,2.45
2023-05-04T15:50:55.180Z,2.10
2023-05-04T15:53:21.899Z,2.03
2023-05-04T15:55:48.710Z,2.05
2023-05-04T15:58:15.510Z,2.42
2023-05-04T16:00:42.131Z,2.47
2023-05-04T16:03:09.234Z,2.22
2023-05-04T16:05:41.691Z,2.38
2023-05-04T16:08:08.393Z,2.40
2023-05-04T16:10:36.275Z,2.17
2023-05-04T16:13:04.447Z,2.15
2023-05-04T16:15:31.326Z,2.10
2023-05-04T16:17:58.441Z,2.65
2023-05-04T16:20:26.498Z,2.10
2023-05-04T16:22:53.248Z,1.95
2023-05-04T16:25:20.074Z,2.00
2023-05-04T16:27:47.428Z,2.17
2023-05-04T16:30:18.672Z,2.20
2023-05-04T16:32:45.389Z,2.30
2023-05-04T16:35:12.180Z,2.33
2023-05-04T16:37:39.388Z,2.22
2023-05-04T16:40:16.206Z,2.17
2023-05-04T16:42:43.815Z,1.98
2023-05-04T16:45:13.390Z,2.20
2023-05-04T16:47:44.016Z,2.60
2023-05-04T16:50:12.492Z,2.42
2023-05-04T16:52:40.068Z,2.20
2023-05-04T16:55:10.656Z,2.47
2023-05-04T16:57:38.766Z,2.33
2023-05-04T17:00:06.611Z,2.40
2023-05-04T17:02:34.027Z,2.40
2023-05-04T17:05:01.054Z,1.88
2023-05-04T17:07:31.562Z,2.25
2023-05-04T17:09:58.220Z,2.40
2023-05-04T17:12:25.130Z,2.50
2023-05-04T17:14:51.801Z,2.10
2023-05-04T17:17:18.409Z,3.03
2023-05-04T17:19:46.044Z,2.35
2023-05-04T17:22:12.690Z,2.30
2023-05-04T17:24:39.363Z,2.40
2023-05-04T17:27:06.036Z,2.28
2023-05-04T17:29:32.773Z,2.50
2023-05-04T17:31:59.526Z,2.83
2023-05-04T17:34:26.379Z,2.45
2023-05-04T17:36:53.787Z,2.10
2023-05-04T17:39:20.557Z,2.35
2023-05-04T17:41:48.681Z,2.50
2023-05-04T17:44:16.313Z,2.85
2023-05-04T17:46:43.570Z,2.40
2023-05-04T17:49:10.583Z,2.53
2023-05-04T17:51:37.349Z,2.80
2023-05-04T17:54:04.086Z,2.30
2023-05-04T17:56:30.831Z,2.17
2023-05-04T17:58:57.533Z,2.70
2023-05-04T18:01:24.252Z,2.90
2023-05-04T18:03:51.009Z,2.63
2023-05-04T18:06:17.881Z,2.78
2023-05-04T18:08:47.080Z,3.65
2023-05-04T18:11:13.838Z,5.82
2023-05-04T18:13:43.708Z,8.85
2023-05-04T18:16:10.760Z,10.55
2023-05-04T18:18:37.547Z,8.35
2023-05-04T18:21:04.530Z,6.28
2023-05-04T18:23:31.327Z,7.75
2023-05-04T18:25:58.092Z,21.67
2023-05-04T18:28:24.887Z,9.55
2023-05-04T18:30:51.588Z,7.22
2023-05-04T18:33:18.358Z,8.50
2023-05-04T18:35:45.169Z,3.03
2023-05-04T18:38:11.822Z,3.50
2023-05-04T18:40:38.422Z,3.10
2023-05-04T18:43:05.177Z,3.08
2023-05-04T18:45:32.078Z,3.45
2023-05-04T18:47:58.821Z,3.13
2023-05-04T18:50:25.934Z,8.00
2023-05-04T18:52:54.065Z,3.90
2023-05-04T18:55:21.020Z,3.17
2023-05-04T18:57:47.736Z,3.00
2023-05-04T19:00:15.103Z,2.22
2023-05-04T19:02:41.813Z,2.65
2023-05-04T19:05:09.178Z,2.20
2023-05-04T19:07:35.944Z,2.10
2023-05-04T19:10:02.818Z,2.55
2023-05-04T19:12:29.542Z,2.35
2023-05-04T19:14:56.316Z,2.88
2023-05-04T19:17:23.019Z,3.33
2023-05-04T19:19:49.824Z,3.35
2023-05-04T19:22:16.905Z,2.88
2023-05-04T19:24:51.342Z,3.10
2023-05-04T19:27:20.310Z,2.60
2023-05-04T19:29:47.395Z,2.65
2023-05-04T19:32:23.305Z,2.50
2023-05-04T19:34:51.967Z,3.00
2023-05-04T19:37:18.645Z,2.50
2023-05-04T19:39:45.463Z,3.05
2023-05-04T19:42:12.254Z,2.33
2023-05-04T19:44:38.947Z,2.33
2023-05-04T19:47:05.789Z,2.50
2023-05-04T19:49:32.691Z,2.55
2023-05-04T19:51:59.300Z,2.45
2023-05-04T19:54:26.016Z,2.50
2023-05-04T19:56:53.042Z,2.55
2023-05-04T19:59:19.699Z,2.20
2023-05-04T20:01:46.971Z,2.75
2023-05-04T20:04:14.017Z,2.80
2023-05-04T20:06:40.765Z,2.58
2023-05-04T20:09:07.480Z,2.50
2023-05-04T20:11:35.927Z,2.47
2023-05-04T20:14:02.710Z,2.50
2023-05-04T20:16:29.377Z,2.58
2023-05-04T20:18:56.243Z,3.03
2023-05-04T20:21:23.227Z,3.53
2023-05-04T20:23:49.947Z,3.03
2023-05-04T20:26:16.847Z,2.58
2023-05-04T20:28:43.598Z,2.65
2023-05-04T20:31:10.213Z,2.92
2023-05-04T20:33:37.188Z,3.10
2023-05-04T20:36:06.090Z,4.38
2023-05-04T20:38:33.201Z,2.90
2023-05-04T20:41:07.699Z,3.17
2023-05-04T20:43:35.314Z,2.85
2023-05-04T20:46:02.008Z,2.50
2023-05-04T20:48:28.815Z,2.78
2023-05-04T20:51:06.608Z,3.50
2023-05-04T20:53:39.869Z,3.28
2023-05-04T20:56:06.705Z,3.17
2023-05-04T20:58:33.482Z,4.10
2023-05-04T21:01:03.973Z,4.25
2023-05-04T21:03:30.891Z,3.33
2023-05-04T21:05:58.021Z,4.25
2023-05-04T21:08:24.771Z,3.67
2023-05-04T21:10:54.530Z,4.28
2023-05-04T21:13:21.330Z,3.47
2023-05-04T21:15:48.285Z,4.57
2023-05-04T21:18:15.008Z,4.00
2023-05-04T21:20:41.909Z,3.88
2023-05-04T21:23:08.514Z,3.60
2023-05-04T21:25:35.598Z,3.95
2023-05-04T21:28:02.310Z,4.25
2023-05-04T21:30:29.188Z,3.22
2023-05-04T21:32:56.132Z,3.80
2023-05-04T21:35:23.359Z,4.10
2023-05-04T21:37:50.164Z,3.50
2023-05-04T21:40:17.204Z,3.95
2023-05-04T21:42:43.838Z,4.10
2023-05-04T21:45:10.876Z,3.72
2023-05-04T21:47:37.622Z,3.42
2023-05-04T21:50:05.387Z,3.50
2023-05-04T21:52:32.126Z,3.70
2023-05-04T21:54:58.883Z,3.40
2023-05-04T21:57:25.997Z,3.10
2023-05-04T21:59:52.644Z,3.30
2023-05-04T22:02:19.342Z,4.00
2023-05-04T22:04:46.032Z,4.40
2023-05-04T22:07:12.728Z,3.47
2023-05-04T22:09:39.756Z,3.70
2023-05-04T22:12:07.584Z,3.85
2023-05-04T22:14:34.281Z,3.30
2023-05-04T22:17:01.458Z,4.07
2023-05-04T22:19:28.261Z,3.33
2023-05-04T22:21:55.366Z,3.50
2023-05-04T22:24:22.038Z,3.35
2023-05-04T22:26:48.727Z,3.63
2023-05-04T22:29:15.516Z,3.05
2023-05-04T22:31:42.207Z,3.45
2023-05-04T22:34:09.043Z,3.45
2023-05-04T22:36:35.725Z,3.05
2023-05-04T22:39:02.603Z,3.20
2023-05-04T22:41:29.307Z,4.20
2023-05-04T22:43:56.169Z,3.80
2023-05-04T22:46:23.364Z,3.80
2023-05-04T22:48:50.042Z,3.25
2023-05-04T22:51:16.722Z,3.05
2023-05-04T22:53:43.833Z,3.70
2023-05-04T22:56:10.455Z,3.53
2023-05-04T22:58:37.250Z,4.22
2023-05-04T23:01:24.258Z,3.45
2023-05-04T23:03:51.317Z,3.70
2023-05-04T23:06:18.099Z,3.92
2023-05-04T23:08:45.369Z,4.00
2023-05-04T23:11:12.178Z,4.07
2023-05-04T23:13:38.843Z,3.15
2023-05-04T23:16:06.050Z,3.30
2023-05-04T23:18:33.003Z,3.35
2023-05-04T23:20:59.757Z,4.10
2023-05-04T23:23:26.476Z,3.83
2023-05-04T23:25:53.135Z,3.50
2023-05-04T23:28:19.820Z,3.65
2023-05-04T23:30:46.502Z,3.53
2023-05-04T23:33:13.673Z,3.33
2023-05-04T23:35:40.389Z,4.40
2023-05-04T23:38:07.136Z,3.33
2023-05-04T23:40:34.760Z,2.90
2023-05-04T23:43:01.427Z,2.95
2023-05-04T23:45:28.089Z,3.13
2023-05-04T23:47:54.828Z,3.20
2023-05-04T23:50:21.488Z,3.00
2023-05-04T23:52:48.126Z,3.50
2023-05-04T23:55:14.812Z,3.30
2023-05-04T23:57:44.001Z,3.40
